Hannover, Germany

4:40 PM CEST on August 29, 2015 (GMT +0200)
Garten im Dorf | | Change Station
CLOSE
Current Station
Personal Weather Station
Location: Langenhagen, NIEDERSACHSEN
Elevation: 180 ft
Nearby Weather Stations

Elev 180 ft 52.45 °N, 9.65 °E | Updated 4 seconds ago

Clear
Clear
76.5 °F
Feels Like 78 °F
N
2.5
Wind Variable Wind from SE
Gusts 2.5 mph

Today
High -- | Low -- °F
--% Chance of Precip.
Yesterday
High -- | Low -- °F
Precip. -- in
6:26 AM 8:16 PM
Full, 100% visible
Pressure 30.18 in
Visibility -9999.0 miles
Clouds
Heat Index 78 °F
Dew Point 52 °F
Humidity 43%
Rainfall 0.00 in
Snow Depth Not available.
UV 2.0 out of 12
Pollen Not available.
Air Quality Not available.
Flu Activity Not available.
METAR EDDV 291420Z 17007KT 120V210 CAVOK 24/14 Q1022 NOSIG
Pressure 30.18 in
Visibility -9999.0 miles
Clouds
Heat Index 78 °F
Dew Point 52 °F
Humidity 43%
Rainfall 0.00 in
Snow Depth Not available.
UV 2.0 out of 12
Pollen Not available.
Air Quality Not available.
Flu Activity Not available.
METAR EDDV 291420Z 17007KT 120V210 CAVOK 24/14 Q1022 NOSIG

10-Day Weather Forecast

×

Almanac

Astronomy

Aug. 29, 2015 Rise Set
Actual Time
Civil Twilight
Nautical Twilight
Astronomical Twilight
Moon
Length of Visible Light
Length of Day
Tomorrow will be .
, % of the Moon is Illuminated

Today's Extremes

Country Highs Country Lows

Community

WunderPhotos

Upload Photos

1,850,707 photos uploaded!

WunderBlogs® & News

Nearby

Air Quality

  Air Quality AQ Index Pollutant
Not available.

Snow Depth

Station Depth Elevation

Earthquake Activity

City Distance Mag. Time & Date
Minimum magnitude displayed is 2.5.

Coastal Water Temperatures

Place Temperature

Stations

Nearby Weather Stations

Station Location Temp. Windchill Dew Point Humidity Wind Precip. Elev Updated Type